createdAt,value
2019-02-15T00:00:57.818Z,16.20
2019-02-15T00:03:25.244Z,16.20
2019-02-15T00:05:52.685Z,16.20
2019-02-15T00:08:20.165Z,16.20
2019-02-15T00:10:47.564Z,16.20
2019-02-15T00:13:15.061Z,16.20
2019-02-15T00:15:42.616Z,16.20
2019-02-15T00:18:27.806Z,16.20
2019-02-15T00:20:59.769Z,16.20
2019-02-15T00:23:27.168Z,16.20
2019-02-15T00:25:54.675Z,16.20
2019-02-15T00:28:22.167Z,16.10
2019-02-15T00:30:49.579Z,16.20
2019-02-15T00:33:16.995Z,16.10
2019-02-15T00:35:44.814Z,16.20
2019-02-15T00:38:12.246Z,16.10
2019-02-15T00:40:39.720Z,16.10
2019-02-15T00:43:07.180Z,16.20
2019-02-15T00:45:40.611Z,16.20
2019-02-15T00:48:12.538Z,16.20
2019-02-15T00:50:58.191Z,16.20
2019-02-15T00:53:47.628Z,16.10
2019-02-15T00:56:52.124Z,16.10
2019-02-15T00:59:56.590Z,16.10
2019-02-15T01:02:52.139Z,16.10
2019-02-15T01:05:37.164Z,16.10
2019-02-15T01:08:17.737Z,16.10
2019-02-15T01:11:04.098Z,16.10
2019-02-15T01:13:31.506Z,16.10
2019-02-15T01:15:58.952Z,16.10
2019-02-15T01:18:26.470Z,16.10
2019-02-15T01:20:53.967Z,16.10
2019-02-15T01:23:21.399Z,16.10
2019-02-15T01:26:06.773Z,16.10
2019-02-15T01:28:43.471Z,16.10
2019-02-15T01:31:29.893Z,16.10
2019-02-15T01:34:19.273Z,16.10
2019-02-15T01:36:51.594Z,16.10
2019-02-15T01:39:43.791Z,16.10
2019-02-15T01:42:39.438Z,16.10
2019-02-15T01:45:34.761Z,16.10
2019-02-15T01:48:02.243Z,16.10
2019-02-15T01:50:29.640Z,16.00
2019-02-15T01:52:57.047Z,16.10
2019-02-15T01:55:24.601Z,16.10
2019-02-15T01:57:52.105Z,16.10
2019-02-15T02:00:20.490Z,16.10
2019-02-15T02:02:47.934Z,16.00
2019-02-15T02:05:15.504Z,16.00
2019-02-15T02:07:42.977Z,16.00
2019-02-15T02:10:10.400Z,16.10
2019-02-15T02:12:37.873Z,16.00
2019-02-15T02:15:05.578Z,16.00
2019-02-15T02:17:33.173Z,16.00
2019-02-15T02:20:00.580Z,16.00
2019-02-15T02:22:28.004Z,16.00
2019-02-15T02:24:58.529Z,16.00
2019-02-15T02:27:26.012Z,16.00
2019-02-15T02:29:53.435Z,16.00
2019-02-15T02:32:20.978Z,16.00
2019-02-15T02:34:48.453Z,16.00
2019-02-15T02:37:15.899Z,16.00
2019-02-15T02:39:43.335Z,16.00
2019-02-15T02:42:10.792Z,16.00
2019-02-15T02:44:38.198Z,16.00
2019-02-15T02:47:05.944Z,16.00
2019-02-15T02:49:33.408Z,16.00
2019-02-15T02:52:00.819Z,16.00
2019-02-15T02:54:28.272Z,16.00
2019-02-15T02:56:55.740Z,16.00
2019-02-15T02:59:23.283Z,16.00
2019-02-15T03:01:50.881Z,16.00
2019-02-15T03:04:18.265Z,15.90
2019-02-15T03:06:45.670Z,16.00
2019-02-15T03:09:13.085Z,16.00
2019-02-15T03:11:40.741Z,16.00
2019-02-15T03:14:11.380Z,16.00
2019-02-15T03:16:37.329Z,16.00
2019-02-15T03:19:04.792Z,16.00
2019-02-15T03:21:32.220Z,16.00
2019-02-15T03:24:00.023Z,16.00
2019-02-15T03:26:27.497Z,16.00
2019-02-15T03:28:54.906Z,15.90
2019-02-15T03:31:22.309Z,15.90
2019-02-15T03:33:49.900Z,15.90
2019-02-15T03:36:31.461Z,15.90
2019-02-15T03:39:11.826Z,15.90
2019-02-15T03:41:39.215Z,15.90
2019-02-15T03:44:06.620Z,15.90
2019-02-15T03:46:34.063Z,15.90
2019-02-15T03:49:01.477Z,15.90
2019-02-15T03:51:28.940Z,15.90
2019-02-15T03:53:59.451Z,15.90
2019-02-15T03:56:26.894Z,15.90
2019-02-15T03:58:54.298Z,15.90
2019-02-15T04:01:21.696Z,15.90
2019-02-15T04:03:49.180Z,15.90
2019-02-15T04:06:16.588Z,15.90
2019-02-15T04:08:43.992Z,15.90
2019-02-15T04:11:11.398Z,15.90
2019-02-15T04:13:38.793Z,15.90
2019-02-15T04:16:06.177Z,15.90
2019-02-15T04:18:33.605Z,15.90
2019-02-15T04:21:01.002Z,15.90
2019-02-15T04:23:28.436Z,15.90
2019-02-15T04:25:55.865Z,15.90
2019-02-15T04:28:25.576Z,15.90
2019-02-15T04:30:53.085Z,15.90
2019-02-15T04:33:20.636Z,15.80
2019-02-15T04:35:48.038Z,15.80
2019-02-15T04:38:15.490Z,15.80
2019-02-15T04:40:42.903Z,15.90
2019-02-15T04:43:10.295Z,15.80
2019-02-15T04:45:37.819Z,15.80
2019-02-15T04:48:05.316Z,15.80
2019-02-15T04:50:32.702Z,15.80
2019-02-15T04:53:02.909Z,15.80
2019-02-15T04:55:29.255Z,15.80
2019-02-15T04:57:56.640Z,15.80
2019-02-15T05:00:24.047Z,15.70
2019-02-15T05:02:51.592Z,15.70
2019-02-15T05:05:19.098Z,15.70
2019-02-15T05:07:46.548Z,15.70
2019-02-15T05:10:14.032Z,15.70
2019-02-15T05:12:41.423Z,15.70
2019-02-15T05:15:08.799Z,15.70
2019-02-15T05:17:36.287Z,15.70
2019-02-15T05:20:03.679Z,15.70
2019-02-15T05:22:31.125Z,15.70
2019-02-15T05:24:58.608Z,15.60
2019-02-15T05:27:26.012Z,15.60
2019-02-15T05:29:53.423Z,15.60
2019-02-15T05:32:20.955Z,15.60
2019-02-15T05:34:48.361Z,15.60
2019-02-15T05:37:15.745Z,15.60
2019-02-15T05:39:43.154Z,15.60
2019-02-15T05:42:10.552Z,15.60
2019-02-15T05:44:37.951Z,15.60
2019-02-15T05:47:05.443Z,15.60
2019-02-15T05:49:32.840Z,15.60
2019-02-15T05:52:00.258Z,15.50
2019-02-15T05:54:27.704Z,15.50
2019-02-15T05:56:55.172Z,15.50
2019-02-15T05:59:22.567Z,15.50
2019-02-15T06:01:50.025Z,15.50
2019-02-15T06:04:17.432Z,15.50
2019-02-15T06:06:44.953Z,15.50
2019-02-15T06:09:12.392Z,15.50
2019-02-15T06:11:40.059Z,15.50
2019-02-15T06:14:07.441Z,15.50
2019-02-15T06:16:34.915Z,15.50
2019-02-15T06:19:02.477Z,15.50
2019-02-15T06:21:30.081Z,15.50
2019-02-15T06:23:57.955Z,15.50
2019-02-15T06:26:25.455Z,15.50
2019-02-15T06:28:53.014Z,15.40
2019-02-15T06:31:20.427Z,15.40
2019-02-15T06:33:48.089Z,15.50
2019-02-15T06:36:15.543Z,15.50
2019-02-15T06:38:43.187Z,15.50
2019-02-15T06:41:12.415Z,15.60
2019-02-15T06:43:39.837Z,15.60
2019-02-15T06:46:07.284Z,15.60
2019-02-15T06:48:34.692Z,15.60
2019-02-15T06:51:02.132Z,15.60
2019-02-15T06:53:29.552Z,15.60
2019-02-15T06:55:57.018Z,15.60
2019-02-15T06:58:24.484Z,15.60
2019-02-15T07:01:06.276Z,15.60
2019-02-15T07:03:45.420Z,15.60
2019-02-15T07:06:12.843Z,15.60
2019-02-15T07:08:45.009Z,15.50
2019-02-15T07:11:12.721Z,15.50
2019-02-15T07:13:40.225Z,15.50
2019-02-15T07:16:07.695Z,15.50
2019-02-15T07:18:35.216Z,15.50
2019-02-15T07:21:02.756Z,15.50
2019-02-15T07:23:30.164Z,15.50
2019-02-15T07:25:57.596Z,15.50
2019-02-15T07:28:25.072Z,15.60
2019-02-15T07:30:52.488Z,15.60
2019-02-15T07:33:19.998Z,15.50
2019-02-15T07:35:47.537Z,15.50
2019-02-15T07:38:15.049Z,15.50
2019-02-15T07:40:42.584Z,15.50
2019-02-15T07:43:10.002Z,15.50
2019-02-15T07:45:42.919Z,15.50
2019-02-15T07:48:06.674Z,15.50
2019-02-15T07:50:34.104Z,15.60
2019-02-15T07:53:01.701Z,15.60
2019-02-15T07:55:29.253Z,15.60
2019-02-15T07:57:56.647Z,15.60
2019-02-15T08:00:24.082Z,15.50
2019-02-15T08:02:51.559Z,15.50
2019-02-15T08:05:18.995Z,15.50
2019-02-15T08:07:46.391Z,15.50
2019-02-15T08:10:13.807Z,15.50
2019-02-15T08:12:41.269Z,15.40
2019-02-15T08:15:08.753Z,15.40
2019-02-15T08:17:36.154Z,15.40
2019-02-15T08:20:03.606Z,15.40
2019-02-15T08:22:31.014Z,15.40
2019-02-15T08:24:58.608Z,15.40
2019-02-15T08:27:26.044Z,15.40
2019-02-15T08:29:53.463Z,15.40
2019-02-15T08:32:20.882Z,15.40
2019-02-15T08:34:48.352Z,15.40
2019-02-15T08:37:15.798Z,15.40
2019-02-15T08:39:43.217Z,15.40
2019-02-15T08:42:10.662Z,15.40
2019-02-15T08:44:38.171Z,15.40
2019-02-15T08:47:06.996Z,15.40
2019-02-15T08:49:34.451Z,15.40
2019-02-15T08:52:01.913Z,15.40
2019-02-15T08:54:29.328Z,15.40
2019-02-15T08:56:57.053Z,15.40
2019-02-15T08:59:24.530Z,15.40
2019-02-15T09:02:26.106Z,15.40
2019-02-15T09:04:53.720Z,15.40
2019-02-15T09:07:21.180Z,15.40
2019-02-15T09:09:48.633Z,15.40
2019-02-15T09:12:16.027Z,15.40
2019-02-15T09:14:43.420Z,15.40
2019-02-15T09:17:10.933Z,15.40
2019-02-15T09:19:38.514Z,15.40
2019-02-15T09:22:06.007Z,15.40
2019-02-15T09:24:33.502Z,15.40
2019-02-15T09:27:07.525Z,15.40
2019-02-15T09:29:35.111Z,15.40
2019-02-15T09:32:02.633Z,15.40
2019-02-15T09:34:30.145Z,15.40
2019-02-15T09:36:57.587Z,15.40
2019-02-15T09:39:25.008Z,15.40
2019-02-15T09:41:52.530Z,15.40
2019-02-15T09:44:19.941Z,15.40
2019-02-15T09:46:47.545Z,15.40
2019-02-15T09:49:15.015Z,15.40
2019-02-15T09:51:42.514Z,15.40
2019-02-15T09:54:09.952Z,15.40
2019-02-15T09:56:37.477Z,15.50
2019-02-15T09:59:04.932Z,15.50
2019-02-15T10:01:32.347Z,15.50
2019-02-15T10:03:59.795Z,15.50
2019-02-15T10:06:27.354Z,15.50
2019-02-15T10:08:54.809Z,15.50
2019-02-15T10:11:22.243Z,15.50
2019-02-15T10:13:49.636Z,15.50
2019-02-15T10:16:17.143Z,15.50
2019-02-15T10:18:44.682Z,15.50
2019-02-15T10:21:12.172Z,15.50
2019-02-15T10:23:39.667Z,15.50
2019-02-15T10:26:07.312Z,15.60
2019-02-15T10:28:34.867Z,15.60
2019-02-15T10:31:02.284Z,15.60
2019-02-15T10:33:29.767Z,15.60
2019-02-15T10:35:57.214Z,15.60
2019-02-15T10:38:24.795Z,15.60
2019-02-15T10:40:52.352Z,15.60
2019-02-15T10:43:19.776Z,15.60
2019-02-15T10:45:47.267Z,15.60
2019-02-15T10:48:14.903Z,15.60
2019-02-15T10:50:42.387Z,15.60
2019-02-15T10:53:12.999Z,15.70
2019-02-15T10:55:59.333Z,15.70
2019-02-15T10:59:04.350Z,15.70
2019-02-15T11:01:42.629Z,15.70
2019-02-15T11:04:41.030Z,15.70
2019-02-15T11:07:07.545Z,15.70
2019-02-15T11:09:34.974Z,15.70
2019-02-15T11:12:02.406Z,15.80
2019-02-15T11:14:29.934Z,15.80
2019-02-15T11:16:57.364Z,15.80
2019-02-15T11:19:24.812Z,15.80
2019-02-15T11:21:52.248Z,15.80
2019-02-15T11:24:19.918Z,15.80
2019-02-15T11:26:47.398Z,15.80
2019-02-15T11:29:14.925Z,15.90
2019-02-15T11:31:42.433Z,15.90
2019-02-15T11:34:09.935Z,15.90
2019-02-15T11:36:37.386Z,15.90
2019-02-15T11:39:05.462Z,15.90
2019-02-15T11:41:32.975Z,15.90
2019-02-15T12:22:07.856Z,16.10
2019-02-15T12:24:35.328Z,16.10
2019-02-15T12:27:02.767Z,16.10
2019-02-15T12:29:30.329Z,16.10
2019-02-15T12:31:57.808Z,16.10
2019-02-15T12:34:25.286Z,16.10
2019-02-15T12:36:52.813Z,16.10
2019-02-15T12:39:20.227Z,16.10
2019-02-15T12:41:47.640Z,16.20
2019-02-15T12:44:15.222Z,16.10
2019-02-15T12:46:42.692Z,16.20
2019-02-15T13:06:35.811Z,16.20
2019-02-15T13:09:04.684Z,16.20
2019-02-15T13:11:32.170Z,16.30
2019-02-15T13:13:59.614Z,16.20
2019-02-15T13:16:27.065Z,16.30
2019-02-15T13:18:54.500Z,16.30
2019-02-15T13:21:22.094Z,16.30
2019-02-15T13:23:49.494Z,16.30
2019-02-15T13:26:16.952Z,16.30
2019-02-15T13:28:44.516Z,16.30
2019-02-15T13:31:12.167Z,16.30
2019-02-15T13:33:39.603Z,16.30
2019-02-15T13:36:07.149Z,16.30
2019-02-15T13:38:34.629Z,16.30
2019-02-15T13:41:02.138Z,16.30
2019-02-15T13:43:29.572Z,16.30
2019-02-15T13:45:56.976Z,16.30
2019-02-15T13:48:24.933Z,16.40
2019-02-15T13:50:52.350Z,16.30
2019-02-15T13:53:19.765Z,16.40
2019-02-15T13:55:47.236Z,16.40
2019-02-15T13:58:14.685Z,16.40
2019-02-15T14:00:42.160Z,16.40
2019-02-15T14:03:09.591Z,16.40
2019-02-15T14:58:15.851Z,16.50
2019-02-15T15:00:43.341Z,16.50
2019-02-15T15:03:10.812Z,16.50
2019-02-15T15:05:38.354Z,16.50
2019-02-15T15:08:05.842Z,16.50
2019-02-15T15:10:33.291Z,16.50
2019-02-15T15:13:00.704Z,16.50
2019-02-15T15:15:28.131Z,16.50
2019-02-15T15:18:02.467Z,16.50
2019-02-15T15:20:24.796Z,16.50
2019-02-15T15:22:52.223Z,16.50
2019-02-15T15:25:19.729Z,16.50
2019-02-15T15:27:47.143Z,16.60
2019-02-15T15:30:14.520Z,16.60
2019-02-15T15:32:41.987Z,16.60
2019-02-15T15:35:09.418Z,16.60
2019-02-15T15:37:36.831Z,16.60
2019-02-15T15:40:04.360Z,16.60
2019-02-15T15:42:31.785Z,16.60
2019-02-15T15:44:59.210Z,16.60
2019-02-15T15:47:26.689Z,16.60
2019-02-15T15:49:54.137Z,16.60
2019-02-15T15:52:21.616Z,16.60
2019-02-15T15:54:49.107Z,16.60
2019-02-15T15:57:16.647Z,16.60
2019-02-15T15:59:44.181Z,16.60
2019-02-15T16:02:11.683Z,16.60
2019-02-15T16:04:39.140Z,16.60
2019-02-15T16:07:06.685Z,16.60
2019-02-15T16:09:34.183Z,16.60
2019-02-15T16:12:01.693Z,16.60
2019-02-15T16:14:29.086Z,16.60
2019-02-15T16:16:56.524Z,16.60
2019-02-15T16:19:23.978Z,16.60
2019-02-15T16:21:51.488Z,16.60
2019-02-15T16:24:18.974Z,16.60
2019-02-15T16:26:46.526Z,16.60
2019-02-15T16:29:14.171Z,16.60
2019-02-15T16:31:41.774Z,16.60
2019-02-15T16:34:09.368Z,16.60
2019-02-15T16:36:36.830Z,16.60
2019-02-15T16:39:05.019Z,16.60
2019-02-15T16:41:32.461Z,16.60
2019-02-15T16:43:59.975Z,16.60
2019-02-15T16:46:27.489Z,16.70
2019-02-15T16:48:55.153Z,16.70
2019-02-15T16:51:22.654Z,16.60
2019-02-15T16:53:50.139Z,16.60
2019-02-15T16:56:17.667Z,16.60
2019-02-15T16:58:45.119Z,16.60
2019-02-15T17:01:12.624Z,16.60
2019-02-15T17:03:40.139Z,16.60
2019-02-15T17:06:07.658Z,16.60
2019-02-15T17:08:35.150Z,16.60
2019-02-15T17:11:02.639Z,16.60
2019-02-15T17:13:30.050Z,16.60
2019-02-15T17:15:57.563Z,16.70
2019-02-15T17:18:25.016Z,16.60
2019-02-15T17:20:52.444Z,16.60
2019-02-15T17:23:19.902Z,16.70
2019-02-15T17:25:47.347Z,16.70
2019-02-15T17:28:14.852Z,16.70
2019-02-15T17:30:42.282Z,16.70
2019-02-15T17:33:09.710Z,16.70
2019-02-15T17:35:37.190Z,16.70
2019-02-15T17:38:04.680Z,16.70
2019-02-15T17:40:32.224Z,16.70
2019-02-15T17:42:59.697Z,16.70
2019-02-15T17:45:27.193Z,16.70
2019-02-15T17:47:54.797Z,16.70
2019-02-15T17:50:22.277Z,16.70
2019-02-15T17:52:49.712Z,16.70
2019-02-15T17:55:17.199Z,16.70
2019-02-15T17:57:44.640Z,16.70
2019-02-15T18:00:12.053Z,16.70
2019-02-15T18:02:39.574Z,16.70
2019-02-15T18:05:08.549Z,16.70
2019-02-15T18:07:35.990Z,16.70
2019-02-15T18:10:03.484Z,16.70
2019-02-15T18:12:30.969Z,16.70
2019-02-15T18:14:58.393Z,16.70
2019-02-15T18:17:25.951Z,16.70
2019-02-15T18:19:53.395Z,16.70
2019-02-15T18:22:20.890Z,16.70
2019-02-15T18:24:48.377Z,16.70
2019-02-15T18:27:15.798Z,16.70
2019-02-15T18:29:43.328Z,16.70
2019-02-15T18:32:10.874Z,16.70
2019-02-15T18:34:38.350Z,16.70
2019-02-15T18:37:05.824Z,16.70
2019-02-15T18:39:33.355Z,16.70
2019-02-15T18:42:01.849Z,16.80
2019-02-15T18:44:29.319Z,16.80
2019-02-15T18:46:56.767Z,16.80
2019-02-15T18:49:24.233Z,16.80
2019-02-15T18:51:51.752Z,16.80
2019-02-15T18:54:19.288Z,16.80
2019-02-15T18:56:46.751Z,16.80
2019-02-15T18:59:14.176Z,16.80
2019-02-15T19:01:41.581Z,16.80
2019-02-15T19:04:09.019Z,16.80
2019-02-15T19:06:36.619Z,16.80
2019-02-15T19:09:04.925Z,16.80
2019-02-15T19:11:32.402Z,16.80
2019-02-15T19:13:59.871Z,16.80
2019-02-15T19:16:27.312Z,16.80
2019-02-15T19:18:54.781Z,16.80
2019-02-15T19:21:22.243Z,16.80
2019-02-15T19:23:49.669Z,16.80
2019-02-15T19:26:17.205Z,16.80
2019-02-15T19:28:44.695Z,16.80
2019-02-15T19:31:12.139Z,16.80
2019-02-15T19:33:39.595Z,16.80
2019-02-15T19:36:07.302Z,16.80
2019-02-15T19:38:34.720Z,16.80
2019-02-15T19:41:02.216Z,16.80
2019-02-15T19:43:29.637Z,16.80
2019-02-15T19:45:57.048Z,16.80
2019-02-15T19:48:24.490Z,16.80
2019-02-15T19:50:52.253Z,16.80
2019-02-15T19:53:19.734Z,16.80
2019-02-15T19:55:47.226Z,16.80
2019-02-15T19:58:14.702Z,16.70
2019-02-15T20:00:42.344Z,16.70
2019-02-15T20:03:09.853Z,16.70
2019-02-15T20:05:37.413Z,16.70
2019-02-15T20:08:04.826Z,16.70
2019-02-15T20:10:32.408Z,16.70
2019-02-15T20:13:00.927Z,16.70
2019-02-15T20:15:28.501Z,16.70
2019-02-15T20:17:56.013Z,16.70
2019-02-15T20:20:23.468Z,16.70
2019-02-15T20:22:50.989Z,16.70
2019-02-15T20:25:18.435Z,16.70
2019-02-15T20:27:45.992Z,16.70
2019-02-15T20:30:13.450Z,16.70
2019-02-15T20:32:40.852Z,16.70
2019-02-15T20:35:08.254Z,16.70
2019-02-15T20:37:35.803Z,16.70
2019-02-15T20:40:03.272Z,16.70
2019-02-15T20:42:30.760Z,16.60
2019-02-15T20:44:58.233Z,16.60
2019-02-15T20:47:25.874Z,16.60
2019-02-15T20:49:58.095Z,16.60
2019-02-15T20:52:23.298Z,16.60
2019-02-15T20:54:50.747Z,16.60
2019-02-15T20:57:18.248Z,16.60
2019-02-15T20:59:45.692Z,16.60
2019-02-15T21:02:14.396Z,16.60
2019-02-15T21:04:41.961Z,16.60
2019-02-15T21:07:09.446Z,16.60
2019-02-15T21:09:36.910Z,16.60
2019-02-15T21:12:04.301Z,16.60
2019-02-15T21:14:31.766Z,16.60
2019-02-15T21:16:59.181Z,16.50
2019-02-15T21:19:26.644Z,16.50
2019-02-15T21:21:54.199Z,16.50
2019-02-15T21:24:21.614Z,16.50
2019-02-15T21:26:49.149Z,16.50
2019-02-15T21:29:16.620Z,16.50
2019-02-15T21:31:44.128Z,16.50
2019-02-15T21:34:12.541Z,16.50
2019-02-15T21:36:40.069Z,16.50
2019-02-15T21:39:07.671Z,16.50
2019-02-15T21:41:35.128Z,16.50
2019-02-15T21:44:02.549Z,16.50
2019-02-15T21:46:29.994Z,16.50
2019-02-15T21:48:57.437Z,16.50
2019-02-15T21:51:24.940Z,16.50
2019-02-15T21:53:52.437Z,16.50
2019-02-15T21:56:20.001Z,16.50
2019-02-15T21:58:47.446Z,16.50
2019-02-15T22:01:14.951Z,16.50
2019-02-15T22:03:42.341Z,16.50
2019-02-15T22:06:09.848Z,16.50
2019-02-15T22:08:37.346Z,16.50
2019-02-15T22:11:04.797Z,16.50
2019-02-15T22:13:32.217Z,16.50
2019-02-15T22:15:59.726Z,16.40
2019-02-15T22:18:27.167Z,16.40
2019-02-15T22:20:54.586Z,16.50
2019-02-15T22:23:22.016Z,16.40
2019-02-15T22:25:49.489Z,16.50
2019-02-15T22:28:16.986Z,16.50
2019-02-15T22:30:44.472Z,16.50
2019-02-15T22:33:12.059Z,16.50
2019-02-15T22:35:39.548Z,16.50
2019-02-15T22:38:07.067Z,16.50
2019-02-15T22:40:34.530Z,16.50
2019-02-15T22:43:01.964Z,16.50
2019-02-15T22:45:29.409Z,16.50
2019-02-15T22:47:56.891Z,16.60
2019-02-15T22:50:24.412Z,16.60
2019-02-15T22:52:51.820Z,16.60
2019-02-15T22:55:19.249Z,16.60
2019-02-15T22:57:46.697Z,16.50
2019-02-15T23:00:14.273Z,16.60
2019-02-15T23:02:41.732Z,16.50
2019-02-15T23:05:09.137Z,16.50
2019-02-15T23:07:36.615Z,16.50
2019-02-15T23:10:05.141Z,16.50
2019-02-15T23:12:32.626Z,16.50
2019-02-15T23:15:00.105Z,16.50
2019-02-15T23:17:27.633Z,16.50
2019-02-15T23:19:55.123Z,16.50
2019-02-15T23:22:22.521Z,16.50
2019-02-15T23:24:50.035Z,16.50
2019-02-15T23:27:17.481Z,16.50
2019-02-15T23:29:44.880Z,16.50
2019-02-15T23:32:12.321Z,16.40
2019-02-15T23:34:39.740Z,16.40
2019-02-15T23:37:07.557Z,16.40
2019-02-15T23:39:34.978Z,16.50
2019-02-15T23:42:02.376Z,16.40
2019-02-15T23:44:29.770Z,16.40
2019-02-15T23:46:57.237Z,16.40
2019-02-15T23:49:24.843Z,16.40
2019-02-15T23:51:52.307Z,16.40
2019-02-15T23:54:19.800Z,16.40
2019-02-15T23:56:47.195Z,16.40
2019-02-15T23:59:14.813Z,16.40
